createdAt,value
2022-09-28T00:01:43.423Z,100.00
2022-09-28T00:04:15.855Z,100.00
2022-09-28T00:06:48.218Z,100.00
2022-09-28T00:09:20.530Z,100.00
2022-09-28T00:11:53.367Z,100.00
2022-09-28T00:14:25.941Z,100.00
2022-09-28T00:16:58.882Z,100.00
2022-09-28T00:19:31.462Z,100.00
2022-09-28T00:22:03.774Z,100.00
2022-09-28T00:24:36.075Z,100.00
2022-09-28T00:27:08.798Z,100.00
2022-09-28T00:29:41.103Z,100.00
2022-09-28T00:32:14.886Z,100.00
2022-09-28T00:34:48.214Z,100.00
2022-09-28T00:37:20.597Z,100.00
2022-09-28T00:39:52.977Z,100.00
2022-09-28T00:42:26.508Z,100.00
2022-09-28T00:44:59.726Z,100.00
2022-09-28T00:47:42.082Z,100.00
2022-09-28T00:50:22.153Z,100.00
2022-09-28T00:53:01.023Z,100.00
2022-09-28T00:55:38.916Z,100.00
2022-09-28T00:58:15.300Z,100.00
2022-09-28T01:00:48.702Z,100.00
2022-09-28T01:03:21.874Z,100.00
2022-09-28T01:05:57.641Z,100.00
2022-09-28T01:08:32.676Z,100.00
2022-09-28T01:11:05.535Z,100.00
2022-09-28T01:13:39.979Z,100.00
2022-09-28T01:16:19.277Z,100.00
2022-09-28T01:19:07.235Z,100.00
2022-09-28T01:21:50.040Z,100.00
2022-09-28T01:24:38.837Z,100.00
2022-09-28T01:27:18.373Z,100.00
2022-09-28T01:29:56.726Z,100.00
2022-09-28T01:32:46.002Z,100.00
2022-09-28T01:35:23.568Z,100.00
2022-09-28T01:38:02.006Z,100.00
2022-09-28T01:40:36.195Z,100.00
2022-09-28T01:43:14.403Z,100.00
2022-09-28T01:45:50.448Z,100.00
2022-09-28T01:48:26.942Z,100.00
2022-09-28T01:51:04.643Z,100.00
2022-09-28T01:53:40.671Z,100.00
2022-09-28T01:56:24.604Z,100.00
2022-09-28T01:59:03.742Z,100.00
2022-09-28T02:01:40.825Z,100.00
2022-09-28T02:04:18.085Z,100.00
2022-09-28T02:06:58.408Z,100.00
2022-09-28T02:09:35.722Z,100.00
2022-09-28T02:12:13.310Z,100.00
2022-09-28T02:14:49.160Z,100.00
2022-09-28T02:17:21.968Z,100.00
2022-09-28T02:19:55.294Z,100.00
2022-09-28T02:22:33.431Z,100.00
2022-09-28T02:25:10.326Z,100.00
2022-09-28T02:27:51.432Z,100.00
2022-09-28T02:30:24.575Z,100.00
2022-09-28T02:33:03.227Z,100.00
2022-09-28T02:35:37.407Z,100.00
2022-09-28T02:38:10.755Z,100.00
2022-09-28T02:40:48.397Z,100.00
2022-09-28T02:43:24.654Z,100.00
2022-09-28T02:46:08.435Z,100.00
2022-09-28T02:49:21.031Z,100.00
2022-09-28T02:52:12.919Z,100.00
2022-09-28T02:55:09.489Z,100.00
2022-09-28T02:57:55.244Z,100.00
2022-09-28T03:00:30.695Z,100.00
2022-09-28T03:03:12.822Z,100.00
2022-09-28T03:05:52.506Z,100.00
2022-09-28T03:08:27.450Z,100.00
2022-09-28T03:11:03.698Z,100.00
2022-09-28T03:13:38.041Z,100.00
2022-09-28T03:16:12.325Z,100.00
2022-09-28T03:18:46.566Z,100.00
2022-09-28T03:21:18.909Z,100.00
2022-09-28T03:23:51.219Z,100.00
2022-09-28T03:26:23.535Z,100.00
2022-09-28T03:28:56.866Z,100.00
2022-09-28T03:31:30.906Z,100.00
2022-09-28T03:34:04.231Z,100.00
2022-09-28T03:36:37.686Z,100.00
2022-09-28T03:39:10.165Z,100.00
2022-09-28T03:41:43.367Z,100.00
2022-09-28T03:44:15.691Z,100.00
2022-09-28T03:46:48.039Z,100.00
2022-09-28T03:49:21.058Z,100.00
2022-09-28T03:51:55.088Z,100.00
2022-09-28T03:54:29.718Z,100.00
2022-09-28T03:57:01.995Z,100.00
2022-09-28T03:59:36.742Z,100.00
2022-09-28T04:02:09.085Z,100.00
2022-09-28T04:04:49.511Z,100.00
2022-09-28T04:07:21.870Z,100.00
2022-09-28T04:09:54.214Z,100.00
2022-09-28T04:12:26.559Z,100.00
2022-09-28T04:14:58.883Z,100.00
2022-09-28T04:17:31.376Z,100.00
2022-09-28T04:20:06.353Z,100.00
2022-09-28T04:23:04.570Z,100.00
2022-09-28T04:25:37.028Z,100.00
2022-09-28T04:28:27.391Z,100.00
2022-09-28T04:31:00.108Z,100.00
2022-09-28T04:33:32.776Z,100.00
2022-09-28T04:36:06.702Z,100.00
2022-09-28T04:38:55.505Z,100.00
2022-09-28T04:41:29.803Z,100.00
2022-09-28T04:44:02.767Z,100.00
2022-09-28T04:46:35.795Z,100.00
2022-09-28T04:49:28.075Z,100.00
2022-09-28T04:52:09.011Z,100.00
2022-09-28T04:54:41.396Z,100.00
2022-09-28T04:57:13.820Z,100.00
2022-09-28T04:59:46.766Z,100.00
2022-09-28T05:02:19.709Z,100.00
2022-09-28T05:05:10.799Z,100.00
2022-09-28T05:08:13.439Z,100.00
2022-09-28T05:10:46.077Z,100.00
2022-09-28T05:13:20.268Z,100.00
2022-09-28T05:15:58.099Z,100.00
2022-09-28T05:18:32.761Z,100.00
2022-09-28T05:21:10.766Z,100.00
2022-09-28T05:23:46.810Z,100.00
2022-09-28T05:26:19.390Z,100.00
2022-09-28T05:28:51.771Z,100.00
2022-09-28T05:31:46.781Z,100.00
2022-09-28T05:34:28.068Z,100.00
2022-09-28T05:37:00.521Z,100.00
2022-09-28T05:39:33.550Z,100.00
2022-09-28T05:42:07.323Z,100.00
2022-09-28T05:44:40.090Z,100.00
2022-09-28T05:47:12.421Z,100.00
2022-09-28T05:49:45.085Z,100.00
2022-09-28T05:52:18.031Z,100.00
2022-09-28T05:54:51.488Z,100.00
2022-09-28T05:57:23.852Z,100.00
2022-09-28T05:59:57.086Z,100.00
2022-09-28T06:02:29.467Z,100.00
2022-09-28T06:05:01.903Z,100.00
2022-09-28T06:07:34.319Z,100.00
2022-09-28T06:10:08.344Z,96.59
2022-09-28T06:12:52.127Z,90.85
2022-09-28T06:15:27.002Z,89.74
2022-09-28T06:18:02.812Z,88.90
2022-09-28T06:20:55.361Z,87.70
2022-09-28T06:23:37.468Z,83.62
2022-09-28T06:26:11.532Z,85.74
2022-09-28T06:28:44.621Z,85.35
2022-09-28T06:31:17.353Z,82.96
2022-09-28T06:33:54.102Z,82.58
2022-09-28T06:36:28.232Z,82.41
2022-09-28T06:39:00.530Z,82.75
2022-09-28T06:41:34.447Z,83.95
2022-09-28T06:44:17.699Z,82.56
2022-09-28T06:47:08.766Z,82.36
2022-09-28T06:50:01.325Z,81.54
2022-09-28T06:52:56.450Z,79.80
2022-09-28T06:55:55.437Z,80.17
2022-09-28T06:58:29.029Z,78.37
2022-09-28T07:01:03.918Z,76.45
2022-09-28T07:03:46.057Z,76.83
2022-09-28T07:06:47.599Z,74.77
2022-09-28T07:09:43.760Z,74.43
2022-09-28T07:12:26.055Z,75.44
2022-09-28T07:15:02.017Z,74.60
2022-09-28T07:17:46.331Z,72.26
2022-09-28T07:20:24.764Z,73.38
2022-09-28T07:23:09.051Z,72.06
2022-09-28T07:26:07.482Z,71.91
2022-09-28T07:29:00.975Z,71.72
2022-09-28T07:31:43.334Z,71.80
2022-09-28T07:34:37.193Z,70.19
2022-09-28T07:37:15.551Z,68.21
2022-09-28T07:40:05.791Z,67.91
2022-09-28T07:42:41.361Z,68.47
2022-09-28T07:45:15.345Z,67.25
2022-09-28T07:47:50.618Z,67.82
2022-09-28T07:50:41.596Z,67.31
2022-09-28T07:53:32.038Z,67.45
2022-09-28T07:56:34.158Z,66.93
2022-09-28T07:59:18.007Z,67.81
2022-09-28T08:02:10.700Z,66.22
2022-09-28T08:04:43.991Z,66.22
2022-09-28T08:07:22.820Z,65.97
2022-09-28T08:10:01.151Z,66.20
2022-09-28T08:12:33.412Z,64.82
2022-09-28T08:15:24.362Z,65.38
2022-09-28T08:18:12.599Z,66.75
2022-09-28T08:21:04.167Z,63.54
2022-09-28T08:23:37.616Z,63.39
2022-09-28T08:26:15.212Z,64.02
2022-09-28T08:28:48.693Z,64.48
2022-09-28T08:31:39.327Z,63.93
2022-09-28T08:34:20.386Z,62.67
2022-09-28T08:37:12.156Z,62.48
2022-09-28T08:40:25.404Z,61.87
2022-09-28T08:43:25.831Z,63.86
2022-09-28T08:46:32.038Z,62.09
2022-09-28T08:49:29.371Z,62.71
2022-09-28T08:52:18.023Z,61.65
2022-09-28T08:55:16.803Z,61.91
2022-09-28T08:57:57.676Z,61.04
2022-09-28T09:00:35.114Z,61.15
2022-09-28T09:03:12.336Z,61.59
2022-09-28T09:05:59.939Z,60.21
2022-09-28T09:09:04.078Z,59.58
2022-09-28T09:11:52.137Z,59.85
2022-09-28T09:14:54.562Z,60.07
2022-09-28T09:17:41.786Z,59.68
2022-09-28T09:20:40.620Z,60.68
2022-09-28T09:23:34.091Z,58.46
2022-09-28T09:26:21.069Z,58.45
2022-09-28T09:29:12.979Z,58.13
2022-09-28T09:32:07.550Z,59.43
2022-09-28T09:35:10.626Z,58.63
2022-09-28T09:38:21.828Z,56.30
2022-09-28T09:41:42.308Z,57.03
2022-09-28T09:44:44.175Z,56.65
2022-09-28T09:47:59.554Z,56.09
2022-09-28T09:50:39.234Z,56.30
2022-09-28T09:53:21.063Z,55.25
2022-09-28T09:55:59.568Z,54.15
2022-09-28T09:58:41.825Z,53.68
2022-09-28T10:01:41.445Z,54.48
2022-09-28T10:04:30.609Z,51.86
2022-09-28T10:07:09.536Z,52.40
2022-09-28T10:09:45.842Z,51.49
2022-09-28T10:12:44.706Z,49.54
2022-09-28T10:15:22.751Z,51.74
2022-09-28T10:18:12.387Z,49.34
2022-09-28T10:21:03.557Z,51.94
2022-09-28T10:23:57.108Z,49.59
2022-09-28T10:26:36.878Z,50.10
2022-09-28T10:29:15.396Z,50.33
2022-09-28T10:31:50.998Z,50.60
2022-09-28T10:34:31.660Z,51.09
2022-09-28T10:37:26.652Z,50.78
2022-09-28T10:40:29.540Z,50.79
2022-09-28T10:43:04.780Z,49.88
2022-09-28T10:45:38.565Z,49.26
2022-09-28T10:48:18.979Z,50.22
2022-09-28T10:51:00.282Z,49.98
2022-09-28T10:53:36.297Z,49.56
2022-09-28T10:56:24.918Z,48.56
2022-09-28T10:59:23.171Z,48.36
2022-09-28T11:01:57.632Z,49.24
2022-09-28T11:04:39.999Z,50.38
2022-09-28T11:07:18.219Z,49.10
2022-09-28T11:09:51.802Z,50.09
2022-09-28T11:12:26.661Z,50.00
2022-09-28T11:15:01.536Z,49.16
2022-09-28T11:17:38.039Z,49.61
2022-09-28T11:20:31.031Z,50.29
2022-09-28T11:23:21.757Z,48.26
2022-09-28T11:26:04.234Z,47.30
2022-09-28T11:28:38.872Z,47.27
2022-09-28T11:31:27.800Z,48.44
2022-09-28T11:34:16.105Z,46.87
2022-09-28T11:37:28.019Z,46.95
2022-09-28T11:40:15.247Z,46.67
2022-09-28T11:42:56.602Z,48.17
2022-09-28T11:45:43.499Z,47.62
2022-09-28T11:48:21.910Z,48.01
2022-09-28T11:51:03.043Z,48.17
2022-09-28T11:53:40.163Z,48.97
2022-09-28T11:56:22.358Z,48.80
2022-09-28T11:58:58.587Z,47.89
2022-09-28T12:01:45.706Z,48.72
2022-09-28T12:04:42.101Z,48.76
2022-09-28T12:07:22.478Z,49.00
2022-09-28T12:10:00.160Z,47.93
2022-09-28T12:12:36.967Z,47.83
2022-09-28T12:15:18.031Z,47.69
2022-09-28T12:17:54.243Z,48.65
2022-09-28T12:20:29.055Z,48.74
2022-09-28T12:23:05.578Z,47.47
2022-09-28T12:25:45.539Z,46.81
2022-09-28T12:28:26.470Z,47.92
2022-09-28T12:31:12.882Z,48.19
2022-09-28T12:33:47.646Z,48.75
2022-09-28T12:36:40.811Z,49.30
2022-09-28T12:39:53.380Z,49.11
2022-09-28T12:42:43.537Z,48.14
2022-09-28T12:45:42.937Z,48.40
2022-09-28T12:49:36.604Z,48.92
2022-09-28T12:51:51.628Z,47.94
2022-09-28T12:54:47.303Z,49.58
2022-09-28T12:57:39.095Z,49.03
2022-09-28T13:00:15.620Z,49.70
2022-09-28T13:03:20.470Z,48.34
2022-09-28T13:06:23.046Z,50.43
2022-09-28T13:09:06.158Z,49.91
2022-09-28T13:11:48.480Z,49.86
2022-09-28T13:14:41.728Z,49.07
2022-09-28T13:17:26.031Z,49.76
2022-09-28T13:20:03.206Z,50.24
2022-09-28T13:22:44.414Z,51.00
2022-09-28T13:25:20.457Z,50.00
2022-09-28T13:27:58.489Z,49.40
2022-09-28T13:30:34.513Z,49.16
2022-09-28T13:33:12.343Z,49.40
2022-09-28T13:35:44.671Z,49.03
2022-09-28T13:38:44.661Z,48.68
2022-09-28T13:41:21.495Z,48.95
2022-09-28T13:44:27.658Z,47.94
2022-09-28T13:47:21.036Z,48.56
2022-09-28T13:50:13.508Z,48.77
2022-09-28T13:52:51.959Z,48.80
2022-09-28T13:55:32.192Z,49.03
2022-09-28T13:58:15.758Z,48.85
2022-09-28T14:00:50.940Z,49.34
2022-09-28T14:03:42.412Z,49.69
2022-09-28T14:06:23.346Z,49.39
2022-09-28T14:09:41.934Z,49.51
2022-09-28T14:12:47.849Z,49.32
2022-09-28T14:15:53.430Z,48.93
2022-09-28T14:18:30.863Z,49.60
2022-09-28T14:21:22.469Z,48.35
2022-09-28T14:24:13.147Z,49.73
2022-09-28T14:27:07.218Z,49.87
2022-09-28T14:29:40.561Z,48.15
2022-09-28T14:32:24.265Z,47.86
2022-09-28T14:35:00.374Z,48.04
2022-09-28T14:37:54.168Z,47.92
2022-09-28T14:40:49.900Z,47.92
2022-09-28T14:43:27.104Z,48.53
2022-09-28T14:46:32.413Z,48.01
2022-09-28T14:49:22.539Z,47.04
2022-09-28T14:52:04.259Z,47.91
2022-09-28T14:54:46.556Z,47.13
2022-09-28T14:57:23.477Z,46.78
2022-09-28T14:59:59.281Z,46.88
2022-09-28T15:02:34.770Z,47.88
2022-09-28T15:05:17.767Z,47.35
2022-09-28T15:07:52.799Z,47.37
2022-09-28T15:10:31.126Z,47.07
2022-09-28T15:13:05.553Z,46.58
2022-09-28T15:15:40.256Z,46.71
2022-09-28T15:18:30.712Z,47.01
2022-09-28T15:21:03.573Z,47.51
2022-09-28T15:23:38.568Z,48.00
2022-09-28T15:26:22.387Z,48.04
2022-09-28T15:28:55.319Z,48.81
2022-09-28T15:31:30.107Z,48.95
2022-09-28T15:34:20.425Z,48.94
2022-09-28T15:36:55.724Z,48.94
2022-09-28T15:39:33.302Z,50.05
2022-09-28T15:42:06.125Z,50.16
2022-09-28T15:44:42.311Z,51.48
2022-09-28T15:47:26.398Z,51.77
2022-09-28T15:50:01.399Z,52.09
2022-09-28T15:52:37.393Z,52.94
2022-09-28T15:55:20.506Z,52.74
2022-09-28T15:58:06.416Z,53.49
2022-09-28T16:00:39.521Z,53.57
2022-09-28T16:03:23.946Z,54.28
2022-09-28T16:06:06.697Z,54.72
2022-09-28T16:08:41.374Z,54.56
2022-09-28T16:11:19.579Z,54.47
2022-09-28T16:14:00.823Z,55.14
2022-09-28T16:16:46.379Z,55.05
2022-09-28T16:19:23.387Z,55.52
2022-09-28T16:21:57.170Z,56.14
2022-09-28T16:24:32.942Z,56.94
2022-09-28T16:27:08.113Z,56.21
2022-09-28T16:29:44.250Z,56.59
2022-09-28T16:32:40.722Z,55.97
2022-09-28T16:35:19.575Z,55.78
2022-09-28T16:38:08.900Z,56.25
2022-09-28T16:40:42.913Z,57.38
2022-09-28T16:43:20.201Z,56.88
2022-09-28T16:45:55.918Z,56.93
2022-09-28T16:48:30.401Z,56.82
2022-09-28T16:51:02.839Z,57.21
2022-09-28T16:53:54.160Z,57.68
2022-09-28T16:56:26.903Z,57.65
2022-09-28T16:59:00.471Z,58.18
2022-09-28T17:01:32.833Z,58.22
2022-09-28T17:04:05.905Z,57.82
2022-09-28T17:06:38.467Z,57.03
2022-09-28T17:09:12.363Z,57.74
2022-09-28T17:11:44.749Z,57.19
2022-09-28T17:14:17.838Z,56.91
2022-09-28T17:17:12.502Z,56.71
2022-09-28T17:19:45.419Z,56.91
2022-09-28T17:22:17.705Z,56.61
2022-09-28T17:24:50.091Z,57.25
2022-09-28T17:27:22.474Z,57.12
2022-09-28T17:29:55.495Z,57.21
2022-09-28T17:32:27.791Z,57.60
2022-09-28T17:35:19.850Z,57.95
2022-09-28T17:37:52.651Z,57.89
2022-09-28T17:40:28.422Z,58.12
2022-09-28T17:43:02.872Z,58.84
2022-09-28T17:45:38.797Z,58.33
2022-09-28T17:48:15.037Z,58.61
2022-09-28T17:50:47.601Z,59.05
2022-09-28T17:53:20.020Z,59.53
2022-09-28T17:55:52.570Z,59.40
2022-09-28T17:58:24.831Z,59.04
2022-09-28T18:00:57.866Z,59.86
2022-09-28T18:03:30.185Z,59.69
2022-09-28T18:06:05.852Z,59.92
2022-09-28T18:08:38.223Z,60.02
2022-09-28T18:11:11.057Z,60.18
2022-09-28T18:13:45.274Z,60.25
2022-09-28T18:16:18.780Z,60.70
2022-09-28T18:18:51.067Z,60.80
2022-09-28T18:21:23.432Z,61.36
2022-09-28T18:23:55.806Z,61.52
2022-09-28T18:26:28.086Z,61.15
2022-09-28T18:29:00.435Z,61.08
2022-09-28T18:31:33.470Z,61.54
2022-09-28T18:34:05.802Z,61.91
2022-09-28T18:36:38.093Z,62.31
2022-09-28T18:39:10.379Z,62.66
2022-09-28T18:41:42.696Z,62.83
2022-09-28T18:44:14.968Z,63.10
2022-09-28T18:46:48.379Z,63.70
2022-09-28T18:49:21.034Z,63.93
2022-09-28T18:51:53.569Z,64.25
2022-09-28T18:54:27.166Z,64.19
2022-09-28T18:56:59.472Z,64.78
2022-09-28T18:59:31.878Z,65.31
2022-09-28T19:02:04.887Z,65.56
2022-09-28T19:04:37.393Z,65.32
2022-09-28T19:07:09.939Z,65.74
2022-09-28T19:09:43.414Z,65.83
2022-09-28T19:12:15.779Z,65.69
2022-09-28T19:14:52.333Z,65.54
2022-09-28T19:17:25.356Z,66.04
2022-09-28T19:19:58.131Z,66.16
2022-09-28T19:22:30.656Z,65.66
2022-09-28T19:25:03.195Z,66.12
2022-09-28T19:27:35.680Z,66.18
2022-09-28T19:30:08.854Z,66.11
2022-09-28T19:32:42.091Z,66.09
2022-09-28T19:35:14.578Z,66.80
2022-09-28T19:37:49.224Z,67.02
2022-09-28T19:40:21.567Z,67.24
2022-09-28T19:42:54.019Z,67.09
2022-09-28T19:45:26.345Z,67.20
2022-09-28T19:48:00.988Z,67.63
2022-09-28T19:50:33.306Z,67.58
2022-09-28T19:53:05.971Z,68.50
2022-09-28T19:55:40.054Z,68.81
2022-09-28T19:58:12.420Z,68.19
2022-09-28T20:00:44.802Z,68.71
2022-09-28T20:03:18.220Z,68.28
2022-09-28T20:05:56.521Z,68.33
2022-09-28T20:08:29.680Z,67.92
2022-09-28T20:11:01.960Z,67.85
2022-09-28T20:13:36.265Z,68.21
2022-09-28T20:16:10.641Z,68.77
2022-09-28T20:18:49.314Z,68.41
2022-09-28T20:21:26.074Z,68.71
2022-09-28T20:23:59.308Z,68.31
2022-09-28T20:26:36.531Z,68.27
2022-09-28T20:29:09.933Z,68.21
2022-09-28T20:31:42.455Z,67.80
2022-09-28T20:34:15.629Z,68.28
2022-09-28T20:36:47.898Z,68.44
2022-09-28T20:39:20.484Z,68.37
2022-09-28T20:41:54.305Z,68.44
2022-09-28T20:44:26.618Z,68.66
2022-09-28T20:46:59.870Z,68.75
2022-09-28T20:49:32.882Z,68.86
2022-09-28T20:52:05.201Z,68.95
2022-09-28T20:54:37.514Z,69.37
2022-09-28T20:57:16.897Z,69.32
2022-09-28T20:59:54.318Z,69.35
2022-09-28T21:02:27.516Z,69.26
2022-09-28T21:05:00.558Z,69.07
2022-09-28T21:07:33.175Z,68.67
2022-09-28T21:10:06.866Z,68.96
2022-09-28T21:12:39.928Z,68.85
2022-09-28T21:15:12.262Z,69.28
2022-09-28T21:17:44.552Z,68.94
2022-09-28T21:20:17.546Z,69.04
2022-09-28T21:22:49.831Z,69.25
2022-09-28T21:25:22.151Z,68.66
2022-09-28T21:27:54.430Z,69.20
2022-09-28T21:30:27.057Z,69.41
2022-09-28T21:33:00.665Z,69.38
2022-09-28T21:35:34.959Z,69.87
2022-09-28T21:38:07.266Z,69.94
2022-09-28T21:40:39.603Z,69.87
2022-09-28T21:43:12.991Z,70.04
2022-09-28T21:45:49.033Z,69.78
2022-09-28T21:48:22.708Z,69.71
2022-09-28T21:50:56.286Z,69.83
2022-09-28T21:53:31.042Z,69.73
2022-09-28T21:56:05.220Z,69.00
2022-09-28T21:58:37.841Z,69.50
2022-09-28T22:01:13.823Z,70.36
2022-09-28T22:03:49.781Z,69.72
2022-09-28T22:06:27.178Z,69.66
2022-09-28T22:08:59.493Z,69.25
2022-09-28T22:11:31.851Z,70.00
2022-09-28T22:14:04.135Z,70.05
2022-09-28T22:16:36.461Z,69.71
2022-09-28T22:19:08.880Z,69.84
2022-09-28T22:21:42.080Z,70.10
2022-09-28T22:24:14.410Z,70.66
2022-09-28T22:26:46.720Z,71.20
2022-09-28T22:29:20.875Z,71.15
2022-09-28T22:31:59.425Z,72.17
2022-09-28T22:34:31.875Z,72.42
2022-09-28T22:37:04.864Z,72.74
2022-09-28T22:39:37.953Z,72.97
2022-09-28T22:42:10.375Z,72.91
2022-09-28T22:44:42.891Z,73.65
2022-09-28T22:47:15.212Z,73.85
2022-09-28T22:49:47.490Z,74.01
2022-09-28T22:52:20.482Z,73.86
2022-09-28T22:54:53.202Z,73.88
2022-09-28T22:57:25.547Z,73.90
2022-09-28T22:59:57.935Z,74.07
2022-09-28T23:02:30.259Z,74.15
2022-09-28T23:05:02.984Z,73.70
2022-09-28T23:07:36.054Z,73.25
2022-09-28T23:10:09.349Z,72.73
2022-09-28T23:12:41.678Z,72.51
2022-09-28T23:15:14.711Z,72.12
2022-09-28T23:17:50.937Z,72.67
2022-09-28T23:20:23.760Z,72.53
2022-09-28T23:22:56.863Z,71.80
2022-09-28T23:25:29.155Z,71.15
2022-09-28T23:28:01.565Z,71.41
2022-09-28T23:30:33.847Z,71.23
2022-09-28T23:33:06.490Z,71.01
2022-09-28T23:35:38.860Z,70.66
2022-09-28T23:38:13.035Z,71.16
2022-09-28T23:40:46.172Z,71.28
2022-09-28T23:43:18.549Z,71.22
2022-09-28T23:45:50.864Z,72.30
2022-09-28T23:48:23.235Z,72.46
2022-09-28T23:50:55.606Z,73.24
2022-09-28T23:53:28.879Z,72.70
2022-09-28T23:56:01.531Z,72.91
2022-09-28T23:58:33.905Z,72.85
